createdAt,value
2022-11-18T00:00:10.500Z,8.450623
2022-11-18T00:01:20.172Z,8.440552
2022-11-18T00:02:28.872Z,8.440552
2022-11-18T00:03:38.477Z,8.440552
2022-11-18T00:04:47.141Z,8.440552
2022-11-18T00:05:55.786Z,8.42041
2022-11-18T00:07:05.606Z,8.440552
2022-11-18T00:08:13.125Z,8.42041
2022-11-18T00:09:21.783Z,8.410339
2022-11-18T00:10:31.461Z,8.410339
2022-11-18T00:11:39.146Z,8.410339
2022-11-18T00:12:48.781Z,8.380127
2022-11-18T00:13:57.437Z,8.410339
2022-11-18T00:15:06.174Z,8.370056
2022-11-18T00:16:15.857Z,8.380127
2022-11-18T00:17:23.501Z,8.380127
2022-11-18T00:18:32.160Z,8.370056
2022-11-18T00:19:41.811Z,8.380127
2022-11-18T00:20:49.457Z,8.370056
2022-11-18T00:21:59.246Z,8.339844
2022-11-18T00:23:07.899Z,8.370056
2022-11-18T00:24:16.556Z,8.359985
2022-11-18T00:25:26.212Z,8.359985
2022-11-18T00:26:34.878Z,8.329773
2022-11-18T00:27:44.571Z,8.279419
2022-11-18T00:28:54.220Z,8.299561
2022-11-18T00:30:01.884Z,8.299561
2022-11-18T00:31:11.512Z,8.279419
2022-11-18T00:32:20.167Z,8.279419
2022-11-18T00:33:28.935Z,8.269348
2022-11-18T00:34:38.594Z,8.269348
2022-11-18T00:35:47.255Z,8.269348
2022-11-18T00:36:55.937Z,8.269348
2022-11-18T00:38:05.599Z,8.259277
2022-11-18T00:39:12.330Z,8.259277
2022-11-18T00:40:22.045Z,8.259277
2022-11-18T00:41:30.695Z,8.239136
2022-11-18T00:42:38.339Z,8.229065
2022-11-18T00:43:48.038Z,8.198853
2022-11-18T00:44:57.672Z,8.188782
2022-11-18T00:46:06.314Z,8.178711
2022-11-18T00:47:15.989Z,8.188782
2022-11-18T00:48:23.660Z,8.188782
2022-11-18T00:49:33.324Z,8.178711
2022-11-18T00:50:43.013Z,8.178711
2022-11-18T00:51:52.665Z,8.148499
2022-11-18T00:53:02.335Z,8.148499
2022-11-18T00:54:10.992Z,8.128357
2022-11-18T00:55:20.680Z,8.128357
2022-11-18T00:56:30.457Z,8.118286
2022-11-18T00:57:38.112Z,8.118286
2022-11-18T00:58:47.764Z,8.098145
2022-11-18T00:59:56.439Z,8.098145
2022-11-18T01:01:06.150Z,8.078003
2022-11-18T01:02:15.755Z,8.088074
2022-11-18T01:03:23.399Z,8.057861
2022-11-18T01:04:32.084Z,8.057861
2022-11-18T01:05:40.733Z,8.057861
2022-11-18T01:06:50.402Z,8.047791
2022-11-18T01:08:00.088Z,8.027649
2022-11-18T01:09:07.719Z,8.057861
2022-11-18T01:10:17.364Z,8.047791
2022-11-18T01:11:26.021Z,8.057861
2022-11-18T01:12:34.685Z,8.027649
2022-11-18T01:13:44.388Z,8.057861
2022-11-18T01:14:53.052Z,8.007507
2022-11-18T01:16:02.737Z,8.047791
2022-11-18T01:17:12.388Z,8.027649
2022-11-18T01:18:20.039Z,8.027649
2022-11-18T01:19:29.716Z,8.027649
2022-11-18T01:20:38.383Z,8.047791
2022-11-18T01:21:46.038Z,8.047791
2022-11-18T01:22:55.694Z,8.027649
2022-11-18T01:24:03.362Z,8.027649
2022-11-18T01:25:12.123Z,8.007507
2022-11-18T01:26:21.780Z,7.997437
2022-11-18T01:27:29.436Z,7.977295
2022-11-18T01:28:39.114Z,7.967224
2022-11-18T01:29:48.776Z,7.977295
2022-11-18T01:30:56.450Z,7.977295
2022-11-18T01:32:23.754Z,7.947083
2022-11-18T01:33:16.745Z,7.937012
2022-11-18T01:34:26.379Z,7.926941
2022-11-18T01:35:36.051Z,7.926941
2022-11-18T01:36:43.729Z,7.896729
2022-11-18T01:37:53.394Z,7.906799
2022-11-18T01:39:02.068Z,7.906799
2022-11-18T01:40:10.774Z,7.896729
2022-11-18T01:41:21.424Z,7.896729
2022-11-18T01:42:29.100Z,7.866516
2022-11-18T01:43:37.752Z,7.866516
2022-11-18T01:44:47.414Z,7.846375
2022-11-18T01:45:57.080Z,7.846375
2022-11-18T01:47:06.758Z,7.826233
2022-11-18T01:48:15.472Z,7.846375
2022-11-18T01:49:24.113Z,7.846375
2022-11-18T01:50:33.763Z,7.826233
2022-11-18T01:51:41.420Z,7.816162
2022-11-18T01:52:51.764Z,7.816162
2022-11-18T01:53:58.757Z,7.826233
2022-11-18T01:55:07.513Z,7.876587
2022-11-18T01:56:17.210Z,7.846375
2022-11-18T01:57:25.864Z,7.846375
2022-11-18T01:58:34.527Z,7.846375
2022-11-18T01:59:44.341Z,7.866516
2022-11-18T02:00:51.994Z,7.866516
2022-11-18T02:02:00.730Z,7.826233
2022-11-18T02:03:10.338Z,7.826233
2022-11-18T02:04:17.985Z,7.826233
2022-11-18T02:05:27.785Z,7.826233
2022-11-18T02:06:37.433Z,7.846375
2022-11-18T02:07:46.117Z,7.816162
2022-11-18T02:08:55.749Z,7.816162
2022-11-18T02:10:03.389Z,7.796021
2022-11-18T02:11:12.055Z,7.796021
2022-11-18T02:12:21.798Z,7.796021
2022-11-18T02:13:30.375Z,7.816162
2022-11-18T02:14:40.027Z,7.796021
2022-11-18T02:15:49.680Z,7.796021
2022-11-18T02:16:58.355Z,7.796021
2022-11-18T02:18:08.127Z,7.816162
2022-11-18T02:19:16.027Z,7.816162
2022-11-18T02:20:25.816Z,7.826233
2022-11-18T02:21:35.461Z,7.816162
2022-11-18T02:22:43.143Z,7.816162
2022-11-18T02:23:52.844Z,7.816162
2022-11-18T02:25:01.492Z,7.846375
2022-11-18T02:26:09.139Z,7.816162
2022-11-18T02:27:18.800Z,7.846375
2022-11-18T02:28:26.578Z,7.826233
2022-11-18T02:29:35.224Z,7.826233
2022-11-18T02:30:44.884Z,7.816162
2022-11-18T02:31:53.561Z,7.846375
2022-11-18T02:33:03.215Z,7.816162
2022-11-18T02:34:12.896Z,7.826233
2022-11-18T02:35:21.579Z,7.826233
2022-11-18T02:36:31.262Z,7.826233
2022-11-18T02:37:40.907Z,7.816162
2022-11-18T02:38:49.548Z,7.816162
2022-11-18T02:39:59.220Z,7.816162
2022-11-18T02:41:07.949Z,7.816162
2022-11-18T02:42:17.609Z,7.796021
2022-11-18T02:43:26.266Z,7.816162
2022-11-18T02:44:33.915Z,7.816162
2022-11-18T02:45:43.603Z,7.826233
2022-11-18T02:46:51.257Z,7.826233
2022-11-18T02:47:59.914Z,7.826233
2022-11-18T02:49:09.591Z,7.816162
2022-11-18T02:50:17.250Z,7.816162
2022-11-18T02:51:25.922Z,7.816162
2022-11-18T02:52:34.604Z,7.796021
2022-11-18T02:53:43.230Z,7.796021
2022-11-18T02:54:52.887Z,7.796021
2022-11-18T02:56:00.552Z,7.796021
2022-11-18T02:57:10.243Z,7.796021
2022-11-18T02:58:19.906Z,7.816162
2022-11-18T02:59:27.563Z,7.78595
2022-11-18T03:00:37.264Z,7.796021
2022-11-18T03:01:45.006Z,7.796021
2022-11-18T03:02:54.606Z,7.816162
2022-11-18T03:04:03.262Z,7.816162
2022-11-18T03:05:10.922Z,7.816162
2022-11-18T03:06:20.651Z,7.826233
2022-11-18T03:07:28.362Z,7.816162
2022-11-18T03:08:37.066Z,7.816162
2022-11-18T03:09:46.717Z,7.796021
2022-11-18T03:10:54.576Z,7.816162
2022-11-18T03:12:04.223Z,7.826233
2022-11-18T03:13:12.875Z,7.816162
2022-11-18T03:14:20.537Z,7.826233
2022-11-18T03:15:30.193Z,7.816162
2022-11-18T03:16:39.871Z,7.796021
2022-11-18T03:17:48.510Z,7.816162
2022-11-18T03:18:58.170Z,7.826233
2022-11-18T03:20:05.837Z,7.816162
2022-11-18T03:21:15.481Z,7.816162
2022-11-18T03:22:24.145Z,7.816162
2022-11-18T03:23:31.796Z,7.816162
2022-11-18T03:24:41.518Z,7.816162
2022-11-18T03:25:51.172Z,7.796021
2022-11-18T03:26:59.820Z,7.816162
2022-11-18T03:28:09.481Z,7.826233
2022-11-18T03:29:17.512Z,7.826233
2022-11-18T03:30:26.877Z,7.846375
2022-11-18T03:31:36.706Z,7.826233
2022-11-18T03:32:46.391Z,7.846375
2022-11-18T03:33:56.048Z,7.826233
2022-11-18T03:35:03.757Z,7.816162
2022-11-18T03:36:13.414Z,7.826233
2022-11-18T03:37:23.158Z,7.846375
2022-11-18T03:38:30.812Z,7.846375
2022-11-18T03:39:40.482Z,7.826233
2022-11-18T03:40:49.163Z,7.866516
2022-11-18T03:41:58.810Z,7.846375
2022-11-18T03:43:08.539Z,7.866516
2022-11-18T03:44:16.194Z,7.846375
2022-11-18T03:45:25.901Z,7.846375
2022-11-18T03:46:35.561Z,7.846375
2022-11-18T03:47:44.206Z,7.826233
2022-11-18T03:48:53.885Z,7.826233
2022-11-18T03:50:02.577Z,7.846375
2022-11-18T03:51:11.227Z,7.846375
2022-11-18T03:52:20.885Z,7.846375
2022-11-18T03:53:29.544Z,7.846375
2022-11-18T03:54:38.234Z,7.846375
2022-11-18T03:55:47.902Z,7.846375
2022-11-18T03:56:55.633Z,7.826233
2022-11-18T03:58:05.212Z,7.816162
2022-11-18T03:59:13.906Z,7.826233
2022-11-18T04:00:23.574Z,7.816162
2022-11-18T04:01:33.267Z,7.816162
2022-11-18T04:02:40.889Z,7.78595
2022-11-18T04:03:49.526Z,7.796021
2022-11-18T04:04:59.194Z,7.78595
2022-11-18T04:06:06.875Z,7.796021
2022-11-18T04:07:16.594Z,7.78595
2022-11-18T04:08:25.203Z,7.796021
2022-11-18T04:09:33.858Z,7.765808
2022-11-18T04:10:43.522Z,7.765808
2022-11-18T04:11:51.198Z,7.78595
2022-11-18T04:13:05.905Z,7.765808
2022-11-18T04:14:10.534Z,7.755737
2022-11-18T04:15:19.208Z,7.78595
2022-11-18T04:16:28.861Z,7.765808
2022-11-18T04:17:37.545Z,7.765808
2022-11-18T04:18:46.196Z,7.765808
2022-11-18T04:19:55.902Z,7.78595
2022-11-18T04:21:03.598Z,7.755737
2022-11-18T04:22:12.269Z,7.745667
2022-11-18T04:23:21.954Z,7.725525
2022-11-18T04:24:30.615Z,7.725525
2022-11-18T04:25:40.268Z,7.725525
2022-11-18T04:26:49.931Z,7.725525
2022-11-18T04:27:57.645Z,7.715454
2022-11-18T04:29:07.364Z,7.715454
2022-11-18T04:30:17.007Z,7.695312
2022-11-18T04:31:25.697Z,7.715454
2022-11-18T04:32:35.357Z,7.695312
2022-11-18T04:33:43.021Z,7.715454
2022-11-18T04:34:52.815Z,7.715454
2022-11-18T04:36:01.476Z,7.715454
2022-11-18T04:37:09.134Z,7.715454
2022-11-18T04:38:21.860Z,7.725525
2022-11-18T04:39:28.462Z,7.715454
2022-11-18T04:40:37.157Z,7.725525
2022-11-18T04:41:46.819Z,7.715454
2022-11-18T04:42:55.478Z,7.695312
2022-11-18T04:44:05.145Z,7.695312
2022-11-18T04:45:13.837Z,7.695312
2022-11-18T04:46:22.501Z,7.695312
2022-11-18T04:47:32.166Z,7.685242
2022-11-18T04:48:39.810Z,7.695312
2022-11-18T04:49:49.463Z,7.715454
2022-11-18T04:50:59.118Z,7.695312
2022-11-18T04:52:06.961Z,7.695312
2022-11-18T04:53:16.634Z,7.695312
2022-11-18T04:54:25.299Z,7.715454
2022-11-18T04:55:32.967Z,7.695312
2022-11-18T04:56:47.418Z,7.685242
2022-11-18T04:57:52.305Z,7.685242
2022-11-18T04:59:01.966Z,7.685242
2022-11-18T05:00:09.620Z,7.695312
2022-11-18T05:01:20.317Z,7.685242
2022-11-18T05:02:30.909Z,7.685242
2022-11-18T05:03:38.582Z,7.695312
2022-11-18T05:04:48.229Z,7.685242
2022-11-18T05:05:56.909Z,7.685242
2022-11-18T05:07:05.645Z,7.6651
2022-11-18T05:08:15.242Z,7.685242
2022-11-18T05:09:26.045Z,7.685242
2022-11-18T05:10:32.568Z,7.695312
2022-11-18T05:11:42.203Z,7.695312
2022-11-18T05:12:49.874Z,7.715454
2022-11-18T05:13:59.533Z,7.695312
2022-11-18T05:15:08.301Z,7.725525
2022-11-18T05:16:16.998Z,7.715454
2022-11-18T05:17:26.718Z,7.695312
2022-11-18T05:18:36.363Z,7.715454
2022-11-18T05:19:45.010Z,7.725525
2022-11-18T05:20:54.705Z,7.725525
2022-11-18T05:22:03.372Z,7.745667
2022-11-18T05:23:13.049Z,7.725525
2022-11-18T05:24:20.706Z,7.725525
2022-11-18T05:25:29.386Z,7.745667
2022-11-18T05:26:39.060Z,7.755737
2022-11-18T05:27:48.760Z,7.755737
2022-11-18T05:28:57.421Z,7.755737
2022-11-18T05:30:08.089Z,7.745667
2022-11-18T05:31:15.747Z,7.745667
2022-11-18T05:32:25.472Z,7.755737
2022-11-18T05:33:35.182Z,7.755737
2022-11-18T05:34:43.839Z,7.755737
2022-11-18T05:35:55.196Z,7.745667
2022-11-18T05:37:02.129Z,7.725525
2022-11-18T05:38:11.304Z,7.745667
2022-11-18T05:39:21.346Z,7.725525
2022-11-18T05:40:29.677Z,7.725525
2022-11-18T05:41:39.345Z,7.725525
2022-11-18T05:42:48.008Z,7.725525
2022-11-18T05:43:55.689Z,7.715454
2022-11-18T05:45:05.401Z,7.745667
2022-11-18T05:46:13.057Z,7.725525
2022-11-18T05:47:21.710Z,7.715454
2022-11-18T05:48:30.382Z,7.725525
2022-11-18T05:49:39.086Z,7.745667
2022-11-18T05:50:48.816Z,7.715454
2022-11-18T05:51:57.477Z,7.715454
2022-11-18T05:53:07.151Z,7.715454
2022-11-18T05:54:16.811Z,7.725525
2022-11-18T05:55:24.501Z,7.745667
2022-11-18T05:56:33.157Z,7.755737
2022-11-18T05:57:42.854Z,7.725525
2022-11-18T05:58:51.528Z,7.745667
2022-11-18T06:00:01.190Z,7.745667
2022-11-18T06:01:09.875Z,7.745667
2022-11-18T06:02:17.550Z,7.725525
2022-11-18T06:03:30.653Z,7.695312
2022-11-18T06:04:36.909Z,7.685242
2022-11-18T06:05:46.591Z,7.725525
2022-11-18T06:06:56.319Z,7.725525
2022-11-18T06:08:04.936Z,7.725525
2022-11-18T06:09:14.801Z,7.715454
2022-11-18T06:10:24.248Z,7.725525
2022-11-18T06:11:31.910Z,7.745667
2022-11-18T06:12:41.606Z,7.745667
2022-11-18T06:13:50.259Z,7.695312
2022-11-18T06:14:58.938Z,7.715454
2022-11-18T06:16:08.598Z,7.695312
2022-11-18T06:17:16.263Z,7.715454
2022-11-18T06:18:25.930Z,7.685242
2022-11-18T06:19:34.619Z,7.685242
2022-11-18T06:20:43.284Z,7.6651
2022-11-18T06:21:53.010Z,7.6651
2022-11-18T06:23:02.662Z,7.655029
2022-11-18T06:24:12.434Z,7.634888
2022-11-18T06:25:22.107Z,7.685242
2022-11-18T06:26:30.777Z,7.685242
2022-11-18T06:27:40.435Z,7.6651
2022-11-18T06:28:48.098Z,7.715454
2022-11-18T06:29:56.974Z,7.715454
2022-11-18T06:31:06.616Z,7.715454
2022-11-18T06:32:15.350Z,7.725525
2022-11-18T06:33:24.012Z,7.745667
2022-11-18T06:34:38.272Z,7.745667
2022-11-18T06:35:43.339Z,7.765808
2022-11-18T06:36:52.985Z,7.78595
2022-11-18T06:38:02.678Z,7.796021
2022-11-18T06:39:11.316Z,7.816162
2022-11-18T06:40:21.012Z,7.846375
2022-11-18T06:41:30.712Z,7.866516
2022-11-18T06:42:39.372Z,7.876587
2022-11-18T06:43:49.068Z,7.866516
2022-11-18T06:44:56.791Z,7.896729
2022-11-18T06:46:09.250Z,7.906799
2022-11-18T06:47:16.144Z,7.947083
2022-11-18T06:48:24.828Z,7.947083
2022-11-18T06:49:34.489Z,7.967224
2022-11-18T06:50:42.142Z,7.967224
2022-11-18T06:51:50.803Z,7.947083
2022-11-18T06:53:00.498Z,7.937012
2022-11-18T06:54:10.836Z,7.926941
2022-11-18T06:55:17.814Z,7.926941
2022-11-18T06:56:26.504Z,7.906799
2022-11-18T06:57:36.216Z,7.926941
2022-11-18T06:58:45.899Z,7.947083
2022-11-18T06:59:56.534Z,7.937012
2022-11-18T07:01:03.270Z,7.967224
2022-11-18T07:02:11.888Z,7.967224
2022-11-18T07:03:20.534Z,8.007507
2022-11-18T07:04:30.223Z,7.997437
2022-11-18T07:05:37.886Z,7.997437
2022-11-18T07:06:47.559Z,7.997437
2022-11-18T07:07:56.276Z,7.997437
2022-11-18T07:09:03.926Z,7.977295
2022-11-18T07:10:13.632Z,8.027649
2022-11-18T07:11:23.287Z,8.007507
2022-11-18T07:12:31.962Z,8.027649
2022-11-18T07:13:43.692Z,8.047791
2022-11-18T07:14:51.270Z,8.047791
2022-11-18T07:16:00.971Z,8.047791
2022-11-18T07:17:10.643Z,8.057861
2022-11-18T07:18:19.312Z,8.078003
2022-11-18T07:19:31.398Z,8.088074
2022-11-18T07:20:37.629Z,8.057861
2022-11-18T07:21:46.310Z,8.078003
2022-11-18T07:22:54.978Z,8.078003
2022-11-18T07:24:02.634Z,8.078003
2022-11-18T07:25:12.314Z,8.057861
2022-11-18T07:26:22.012Z,8.098145
2022-11-18T07:27:30.671Z,8.118286
2022-11-18T07:28:40.343Z,8.128357
2022-11-18T07:29:48.076Z,8.148499
2022-11-18T07:30:56.724Z,8.148499
2022-11-18T07:32:06.387Z,8.178711
2022-11-18T07:33:14.074Z,8.188782
2022-11-18T07:34:23.729Z,8.239136
2022-11-18T07:35:32.396Z,8.279419
2022-11-18T07:36:41.063Z,8.269348
2022-11-18T07:37:50.741Z,8.269348
2022-11-18T07:39:00.453Z,8.299561
2022-11-18T07:40:09.103Z,8.299561
2022-11-18T07:41:18.793Z,8.309631
2022-11-18T07:42:27.476Z,8.329773
2022-11-18T07:43:37.125Z,8.309631
2022-11-18T07:44:45.921Z,8.339844
2022-11-18T07:45:55.596Z,8.359985
2022-11-18T07:47:05.296Z,8.359985
2022-11-18T07:48:12.980Z,8.339844
2022-11-18T07:49:22.826Z,8.339844
2022-11-18T07:50:32.446Z,8.329773
2022-11-18T07:51:42.095Z,8.339844
2022-11-18T07:52:50.792Z,8.359985
2022-11-18T07:53:59.437Z,8.370056
2022-11-18T07:55:07.102Z,8.370056
2022-11-18T07:56:16.791Z,8.380127
2022-11-18T07:57:24.475Z,8.380127
2022-11-18T07:58:34.173Z,8.42041
2022-11-18T07:59:43.842Z,8.42041
2022-11-18T08:00:51.488Z,8.440552
2022-11-18T08:02:00.194Z,8.440552
2022-11-18T08:03:12.426Z,8.440552
2022-11-18T08:04:18.494Z,8.460693
2022-11-18T08:05:28.224Z,8.460693
2022-11-18T08:06:36.842Z,8.490906
2022-11-18T08:07:46.609Z,8.511047
2022-11-18T08:08:56.187Z,8.511047
2022-11-18T08:10:03.850Z,8.511047
2022-11-18T08:11:16.234Z,8.531189
2022-11-18T08:12:24.151Z,8.531189
2022-11-18T08:13:31.858Z,8.521118
2022-11-18T08:14:42.589Z,8.531189
2022-11-18T08:15:52.253Z,8.551331
2022-11-18T08:17:01.938Z,8.551331
2022-11-18T08:18:13.793Z,8.551331
2022-11-18T08:19:20.736Z,8.561401
2022-11-18T08:20:30.206Z,8.581543
2022-11-18T08:21:39.934Z,8.601685
2022-11-18T08:22:49.658Z,8.581543
2022-11-18T08:23:59.403Z,8.581543
2022-11-18T08:25:08.165Z,8.551331
2022-11-18T08:26:17.862Z,8.561401
2022-11-18T08:27:27.530Z,8.581543
2022-11-18T08:28:36.288Z,8.581543
2022-11-18T08:29:46.117Z,8.601685
2022-11-18T08:30:55.747Z,8.581543
2022-11-18T08:32:04.460Z,8.601685
2022-11-18T08:33:14.166Z,8.581543
2022-11-18T08:34:21.910Z,8.561401
2022-11-18T08:35:30.641Z,8.601685
2022-11-18T08:36:40.375Z,8.611755
2022-11-18T08:37:49.047Z,8.601685
2022-11-18T08:38:58.731Z,8.611755
2022-11-18T08:40:07.395Z,8.581543
2022-11-18T08:41:16.098Z,8.551331
2022-11-18T08:42:26.843Z,8.561401
2022-11-18T08:43:35.457Z,8.511047
2022-11-18T08:44:45.288Z,8.490906
2022-11-18T08:45:53.975Z,8.450623
2022-11-18T08:47:03.636Z,8.450623
2022-11-18T08:48:13.420Z,8.460693
2022-11-18T08:49:22.099Z,8.460693
2022-11-18T08:50:32.742Z,8.440552
2022-11-18T08:51:42.413Z,8.410339
2022-11-18T08:52:51.101Z,8.42041
2022-11-18T08:54:00.801Z,8.440552
2022-11-18T08:55:10.578Z,8.450623
2022-11-18T08:56:19.244Z,8.440552
2022-11-18T08:57:27.905Z,8.450623
2022-11-18T08:58:37.579Z,8.460693
2022-11-18T08:59:45.324Z,8.460693
2022-11-18T09:00:54.990Z,8.460693
2022-11-18T09:02:04.796Z,8.480835
2022-11-18T09:03:14.456Z,8.480835
2022-11-18T09:04:24.143Z,8.511047
2022-11-18T09:05:31.841Z,8.511047
2022-11-18T09:06:41.509Z,8.521118
2022-11-18T09:07:51.224Z,8.551331
2022-11-18T09:09:03.438Z,8.551331
2022-11-18T09:10:08.590Z,8.551331
2022-11-18T09:11:18.280Z,8.551331
2022-11-18T09:12:26.997Z,8.581543
2022-11-18T09:14:09.900Z,8.561401
2022-11-18T09:15:15.494Z,8.531189
2022-11-18T09:15:58.595Z,8.521118
2022-11-18T09:17:08.433Z,8.511047
2022-11-18T09:18:18.079Z,8.490906
2022-11-18T09:20:38.403Z,8.460693
2022-11-18T09:21:46.056Z,8.460693
2022-11-18T09:22:55.761Z,8.450623
2022-11-18T09:24:03.413Z,8.440552
2022-11-18T09:25:12.105Z,8.440552
2022-11-18T09:26:22.759Z,8.42041
2022-11-18T09:27:30.446Z,8.440552
2022-11-18T09:28:40.139Z,8.450623
2022-11-18T09:29:49.800Z,8.42041
2022-11-18T09:30:58.475Z,8.42041
2022-11-18T09:32:08.154Z,8.410339
2022-11-18T09:33:20.350Z,8.42041
2022-11-18T09:34:24.547Z,8.440552
2022-11-18T09:35:34.388Z,8.42041
2022-11-18T09:36:43.056Z,8.410339
2022-11-18T09:37:52.818Z,8.42041
2022-11-18T09:39:01.490Z,8.42041
2022-11-18T09:40:10.205Z,8.450623
2022-11-18T09:41:19.892Z,8.42041
2022-11-18T09:42:27.570Z,8.380127
2022-11-18T09:43:36.254Z,8.370056
2022-11-18T09:44:45.925Z,8.42041
2022-11-18T09:45:53.634Z,8.370056
2022-11-18T09:47:03.310Z,8.359985
2022-11-18T09:48:11.979Z,8.359985
2022-11-18T09:49:20.832Z,8.339844
2022-11-18T09:51:41.159Z,8.269348
2022-11-18T09:52:49.822Z,8.188782
2022-11-18T09:53:59.506Z,8.088074
2022-11-18T09:55:07.184Z,7.977295
2022-11-18T09:56:16.914Z,7.937012
2022-11-18T09:57:25.569Z,7.906799
2022-11-18T09:58:33.212Z,7.846375
2022-11-18T09:59:42.890Z,7.826233
2022-11-18T10:00:51.565Z,7.826233
2022-11-18T10:02:01.285Z,7.725525
2022-11-18T10:03:10.977Z,7.685242
2022-11-18T10:04:17.927Z,7.655029
2022-11-18T10:05:27.455Z,7.604675
2022-11-18T10:06:37.191Z,7.584534
2022-11-18T10:07:45.938Z,7.604675
2022-11-18T10:08:55.661Z,7.634888
2022-11-18T10:10:05.347Z,7.685242
2022-11-18T10:11:14.015Z,7.6651
2022-11-18T10:12:23.686Z,7.685242
2022-11-18T10:13:32.388Z,7.634888
2022-11-18T10:14:42.141Z,7.614746
2022-11-18T10:15:50.796Z,7.574463
2022-11-18T10:16:58.508Z,7.564392
2022-11-18T10:18:08.246Z,7.54425
2022-11-18T10:19:17.900Z,7.483826
2022-11-18T10:20:26.626Z,7.514038
2022-11-18T10:21:36.338Z,7.514038
2022-11-18T10:22:46.012Z,7.53418
2022-11-18T10:23:55.680Z,7.473755
2022-11-18T10:25:05.421Z,7.453613
2022-11-18T10:26:13.061Z,7.473755
2022-11-18T10:27:22.733Z,7.433472
2022-11-18T10:28:30.458Z,7.423401
2022-11-18T10:29:39.083Z,7.433472
2022-11-18T10:30:48.773Z,7.423401
2022-11-18T10:32:01.085Z,7.433472
2022-11-18T10:33:07.113Z,7.453613
2022-11-18T10:34:15.982Z,7.433472
2022-11-18T10:35:24.533Z,7.433472
2022-11-18T10:36:35.194Z,7.433472
2022-11-18T10:38:06.579Z,7.423401
2022-11-18T10:38:54.532Z,7.393188
2022-11-18T10:40:04.196Z,7.383118
2022-11-18T10:41:11.886Z,7.362976
2022-11-18T10:42:21.682Z,7.403259
2022-11-18T10:43:30.383Z,7.362976
2022-11-18T10:44:38.043Z,7.362976
2022-11-18T10:45:47.781Z,7.352905
2022-11-18T10:46:57.480Z,7.383118
2022-11-18T10:48:07.146Z,7.383118
2022-11-18T10:49:16.867Z,7.393188
2022-11-18T10:50:24.516Z,7.383118
2022-11-18T10:51:34.187Z,7.383118
2022-11-18T10:52:41.853Z,7.383118
2022-11-18T10:53:51.555Z,7.332764
2022-11-18T10:55:00.367Z,7.322693
2022-11-18T10:56:08.021Z,7.312622
2022-11-18T10:57:17.693Z,7.312622
2022-11-18T10:58:25.401Z,7.312622
2022-11-18T10:59:34.029Z,7.242126
2022-11-18T11:00:43.771Z,7.232056
2022-11-18T11:01:51.520Z,7.201843
2022-11-18T11:03:02.097Z,7.201843
2022-11-18T11:04:11.759Z,7.171631
2022-11-18T11:05:20.415Z,7.181702
2022-11-18T11:06:30.104Z,7.151489
2022-11-18T11:07:39.852Z,7.201843
2022-11-18T11:08:48.445Z,7.181702
2022-11-18T11:09:58.157Z,7.171631
2022-11-18T11:11:07.818Z,7.141418
2022-11-18T11:12:17.526Z,7.141418
2022-11-18T11:13:26.194Z,7.131348
2022-11-18T11:14:33.878Z,7.070923
2022-11-18T11:15:43.578Z,7.070923
2022-11-18T11:16:52.244Z,7.131348
2022-11-18T11:18:01.955Z,7.151489
2022-11-18T11:19:11.623Z,7.181702
2022-11-18T11:20:19.411Z,7.211914
2022-11-18T11:21:29.121Z,7.252197
2022-11-18T11:22:38.786Z,7.252197
2022-11-18T11:23:47.523Z,7.322693
2022-11-18T11:24:57.204Z,7.383118
2022-11-18T11:28:25.160Z,7.514038
2022-11-18T11:29:33.855Z,7.584534
2022-11-18T11:30:45.298Z,7.614746
2022-11-18T11:31:53.202Z,7.634888
2022-11-18T11:33:00.902Z,7.685242
2022-11-18T11:34:10.582Z,7.685242
2022-11-18T11:35:20.282Z,7.745667
2022-11-18T11:36:29.945Z,7.685242
2022-11-18T11:37:39.629Z,7.634888
2022-11-18T11:38:48.318Z,7.634888
2022-11-18T11:39:58.955Z,7.584534
2022-11-18T11:41:08.692Z,7.614746
2022-11-18T11:42:18.306Z,7.584534
2022-11-18T11:43:28.012Z,7.574463
2022-11-18T11:44:35.667Z,7.564392
2022-11-18T11:45:44.326Z,7.564392
2022-11-18T11:46:54.027Z,7.604675
2022-11-18T11:48:01.675Z,7.604675
2022-11-18T11:49:11.406Z,7.604675
2022-11-18T11:50:21.072Z,7.614746
2022-11-18T11:51:29.751Z,7.634888
2022-11-18T11:52:39.435Z,7.6651
2022-11-18T11:53:48.107Z,7.655029
2022-11-18T11:54:56.785Z,7.634888
2022-11-18T11:56:06.444Z,7.604675
2022-11-18T11:57:17.142Z,7.614746
2022-11-18T11:58:26.878Z,7.604675
2022-11-18T11:59:36.554Z,7.614746
2022-11-18T12:00:45.227Z,7.6651
2022-11-18T12:01:53.889Z,7.6651
2022-11-18T12:03:01.582Z,7.6651
2022-11-18T12:04:10.255Z,7.685242
2022-11-18T12:05:20.052Z,7.655029
2022-11-18T12:06:28.714Z,7.634888
2022-11-18T12:07:38.420Z,7.584534
2022-11-18T12:08:48.096Z,7.584534
2022-11-18T12:09:56.834Z,7.574463
2022-11-18T12:11:07.516Z,7.564392
2022-11-18T12:12:16.201Z,7.564392
2022-11-18T12:13:25.884Z,7.54425
2022-11-18T12:14:39.643Z,7.574463
2022-11-18T12:15:45.200Z,7.604675
2022-11-18T12:16:53.886Z,7.584534
2022-11-18T12:18:02.568Z,7.574463
2022-11-18T12:19:12.245Z,7.514038
2022-11-18T12:20:20.934Z,7.53418
2022-11-18T12:21:32.374Z,7.514038
2022-11-18T12:22:38.300Z,7.53418
2022-11-18T12:23:47.953Z,7.53418
2022-11-18T12:24:56.639Z,7.53418
2022-11-18T12:26:06.311Z,7.53418
2022-11-18T12:27:15.014Z,7.514038
2022-11-18T12:28:22.668Z,7.53418
2022-11-18T12:29:32.386Z,7.564392
2022-11-18T12:30:42.101Z,7.54425
2022-11-18T12:31:50.754Z,7.54425
2022-11-18T12:33:00.495Z,7.54425
2022-11-18T12:34:09.184Z,7.574463
2022-11-18T12:35:18.874Z,7.574463
2022-11-18T12:36:27.523Z,7.54425
2022-11-18T12:37:35.183Z,7.514038
2022-11-18T12:38:44.906Z,7.503967
2022-11-18T12:39:53.626Z,7.514038
2022-11-18T12:41:02.295Z,7.514038
2022-11-18T12:42:11.968Z,7.514038
2022-11-18T12:43:19.625Z,7.514038
2022-11-18T12:44:28.309Z,7.54425
2022-11-18T12:45:38.070Z,7.514038
2022-11-18T12:46:47.732Z,7.514038
2022-11-18T12:47:57.421Z,7.483826
2022-11-18T12:49:07.099Z,7.514038
2022-11-18T12:50:15.866Z,7.473755
2022-11-18T12:51:25.521Z,7.383118
2022-11-18T12:52:33.207Z,7.332764
2022-11-18T12:53:42.867Z,7.332764
2022-11-18T12:54:52.542Z,7.322693
2022-11-18T12:56:00.239Z,7.312622
2022-11-18T12:57:09.897Z,7.312622
2022-11-18T12:58:18.609Z,7.29248
2022-11-18T12:59:26.262Z,7.252197
2022-11-18T13:00:35.956Z,7.252197
2022-11-18T13:01:44.829Z,7.232056
2022-11-18T13:02:53.414Z,7.242126
2022-11-18T13:04:03.086Z,7.242126
2022-11-18T13:05:10.743Z,7.29248
2022-11-18T13:06:20.421Z,7.29248
2022-11-18T13:07:30.173Z,7.232056
2022-11-18T13:08:38.834Z,7.242126
2022-11-18T13:09:48.470Z,7.28241
2022-11-18T13:10:58.142Z,7.211914
2022-11-18T13:12:06.874Z,7.201843
2022-11-18T13:13:16.499Z,7.141418
2022-11-18T13:14:24.157Z,7.141418
2022-11-18T13:15:33.830Z,7.131348
2022-11-18T13:16:42.499Z,7.111206
2022-11-18T13:17:51.194Z,7.070923
2022-11-18T13:19:00.847Z,7.070923
2022-11-18T13:20:08.520Z,7.060852
2022-11-18T13:21:17.195Z,7.070923
2022-11-18T13:22:26.863Z,7.050781
2022-11-18T13:23:35.534Z,7.020569
2022-11-18T13:24:45.221Z,6.970215
2022-11-18T13:25:52.889Z,6.970215
2022-11-18T13:27:02.545Z,6.960144
2022-11-18T13:28:12.213Z,6.950073
2022-11-18T13:29:20.359Z,6.929932
2022-11-18T13:30:29.608Z,6.879578
2022-11-18T13:31:37.283Z,6.869507
2022-11-18T13:32:46.939Z,6.849365
2022-11-18T13:33:56.626Z,6.839294
2022-11-18T13:35:06.269Z,6.869507
2022-11-18T13:36:15.985Z,6.849365
2022-11-18T13:37:25.667Z,6.839294